Crompond, NY

10:59 AM EST on February 28, 2015 (GMT -0500)
Danbury Municipal | Change Station
CLOSE
Current Station
Airport
Location: Danbury,
Elevation: 456 ft
Nearby Weather Stations

Elev 456 ft 41.37 °N, 73.48 °W | Updated 6 minutes ago

Clear
Clear
19 °F
Feels Like 12 °F
N
5
Wind Variable Wind from Variable

Today
High -- | Low -- °F
--% Chance of Precip.
Yesterday
High -- | Low -- °F
Precip. -- in
6:31 AM 5:44 PM
Waxing Gibbous, 78% visible
Pressure 30.81 in
Visibility 10.0 miles
Clouds Clear
Windchill 12 °F
Dew Point -1 °F
Humidity 42%
Rainfall 0.00 in
Snow Depth Not available.
UV 5 out of 12
Pollen .40 out of 12
Air Quality Not available.
Flu Activity Not available.
METAR KDXR 281553Z VRB04KT 10SM CLR M07/M18 A3078 RMK AO2 SLP431 T10721183

More Conditions Fewer Conditions

Pressure 30.81 in
Visibility 10.0 miles
Clouds Clear
Windchill 12 °F
Dew Point -1 °F
Humidity 42%
Rainfall 0.00 in
Snow Depth Not available.
UV 5 out of 12
Pollen .40 out of 12
Air Quality Not available.
Flu Activity Not available.
METAR KDXR 281553Z VRB04KT 10SM CLR M07/M18 A3078 RMK AO2 SLP431 T10721183

More Conditions Fewer Conditions

10-Day Weather Forecast

Almanac

Astronomy

Feb. 28, 2015 Rise Set
Actual Time
Civil Twilight
Nautical Twilight
Astronomical Twilight
Moon
Length of Visible Light
Length of Day
Tomorrow will be .
, % of the Moon is Illuminated

Today's Extremes

State Highs State Lows

Community

WunderPhotos

Upload Photos

1,801,055 photos uploaded!

WunderBlogs® & News

Nearby

Air Quality

  Air Quality AQ Index Pollutant
Not available.

Snow Depth

Station Depth Elevation

Earthquake Activity

City Distance Mag. Time & Date
Minimum magnitude displayed is 2.5.

Coastal Water Temperatures

Place Temperature

Nearby Weather Stations